TimePST,TemperatureF,Dew PointF,Humidity,Sea Level PressureIn,VisibilityMPH,Wind Direction,Wind SpeedMPH,Gust SpeedMPH,PrecipitationIn,Events,Conditions,WindDirDegrees,DateUTC
12:53 AM,48.9,39.0,69,30.11,10.0,East,4.6,-,N/A,,Overcast,80,2013-02-10 08:53:00
1:53 AM,48.9,37.9,66,30.10,10.0,ESE,4.6,-,N/A,,Overcast,110,2013-02-10 09:53:00
2:53 AM,46.9,37.9,71,30.09,10.0,ENE,3.5,-,N/A,,Overcast,70,2013-02-10 10:53:00
4:53 AM,45.0,36.0,71,30.07,10.0,Calm,Calm,-,N/A,,Scattered Clouds,0,2013-02-10 12:53:00
5:53 AM,44.1,36.0,73,30.07,10.0,NNE,3.5,-,N/A,,Scattered Clouds,30,2013-02-10 13:53:00
7:53 AM,48.0,36.0,63,30.09,10.0,NE,3.5,-,N/A,,Scattered Clouds,50,2013-02-10 15:53:00
8:53 AM,51.1,36.0,56,30.10,10.0,ENE,4.6,-,N/A,,Mostly Cloudy,70,2013-02-10 16:53:00
9:53 AM,53.1,37.9,57,30.11,10.0,NNW,3.5,-,N/A,,Mostly Cloudy,340,2013-02-10 17:53:00
10:09 AM,53.6,39.2,58,30.10,10.0,Calm,Calm,-,N/A,,Mostly Cloudy,0,2013-02-10 18:09:00
10:53 AM,53.1,41.0,64,30.10,10.0,SW,5.8,-,N/A,,Mostly Cloudy,220,2013-02-10 18:53:00
11:42 AM,53.6,41.0,62,30.08,10.0,Calm,Calm,-,N/A,,Mostly Cloudy,0,2013-02-10 19:42:00
11:53 AM,54.0,41.0,62,30.08,10.0,SW,4.6,-,N/A,,Mostly Cloudy,230,2013-02-10 19:53:00
12:19 PM,53.6,41.0,62,30.07,10.0,Calm,Calm,-,N/A,,Mostly Cloudy,0,2013-02-10 20:19:00
12:53 PM,54.0,41.0,62,30.05,10.0,Variable,4.6,-,N/A,,Mostly Cloudy,0,2013-02-10 20:53:00
1:53 PM,55.9,39.9,55,30.04,10.0,South,3.5,-,N/A,,Mostly Cloudy,190,2013-02-10 21:53:00
2:53 PM,55.0,39.0,55,30.03,10.0,SSW,8.1,-,N/A,,Mostly Cloudy,200,2013-02-10 22:53:00
3:53 PM,55.0,39.9,57,30.03,10.0,SSW,9.2,-,N/A,,Mostly Cloudy,200,2013-02-10 23:53:00
4:53 PM,54.0,39.9,59,30.03,10.0,SSW,6.9,-,N/A,,Scattered Clouds,210,2013-02-11 00:53:00
5:53 PM,53.1,39.9,61,30.03,10.0,Calm,Calm,-,N/A,,Scattered Clouds,0,2013-02-11 01:53:00
6:53 PM,53.1,41.0,64,30.05,10.0,Calm,Calm,-,N/A,,Mostly Cloudy,0,2013-02-11 02:53:00
7:53 PM,53.1,41.0,64,30.05,10.0,Calm,Calm,-,N/A,,Mostly Cloudy,0,2013-02-11 03:53:00
8:53 PM,51.1,41.0,68,30.06,10.0,ESE,5.8,-,N/A,,Scattered Clouds,120,2013-02-11 04:53:00
9:53 PM,48.9,41.0,74,30.07,10.0,ESE,5.8,-,N/A,,Scattered Clouds,120,2013-02-11 05:53:00
10:53 PM,48.9,41.0,74,30.07,10.0,Calm,Calm,-,N/A,,Partly Cloudy,0,2013-02-11 06:53:00
11:53 PM,46.0,39.9,79,30.08,10.0,NNE,3.5,-,N/A,,Clear,30,2013-02-11 07:53:00